sensor_id;sensor_type;location;lat;lon;timestamp;P1;durP1;ratioP1;P2;durP2;ratioP2
68216;SDS011;55037;52.354;4.992;2023-07-09T00:01:54;14.32;;;9.73;;
68216;SDS011;55037;52.354;4.992;2023-07-09T00:04:22;11.40;;;7.35;;
68216;SDS011;55037;52.354;4.992;2023-07-09T00:06:50;16.10;;;10.33;;
68216;SDS011;55037;52.354;4.992;2023-07-09T00:09:18;14.20;;;10.38;;
68216;SDS011;55037;52.354;4.992;2023-07-09T00:11:47;16.38;;;6.63;;
68216;SDS011;55037;52.354;4.992;2023-07-09T00:14:16;15.20;;;10.27;;
68216;SDS011;55037;52.354;4.992;2023-07-09T00:16:44;13.70;;;9.80;;
68216;SDS011;55037;52.354;4.992;2023-07-09T00:19:19;13.30;;;9.03;;
68216;SDS011;55037;52.354;4.992;2023-07-09T00:21:51;13.20;;;8.32;;
68216;SDS011;55037;52.354;4.992;2023-07-09T00:24:20;14.25;;;8.70;;
68216;SDS011;55037;52.354;4.992;2023-07-09T00:26:48;10.00;;;5.97;;
68216;SDS011;55037;52.354;4.992;2023-07-09T00:29:16;15.23;;;8.20;;
68216;SDS011;55037;52.354;4.992;2023-07-09T00:31:44;14.53;;;8.73;;
68216;SDS011;55037;52.354;4.992;2023-07-09T00:34:12;14.30;;;8.02;;
68216;SDS011;55037;52.354;4.992;2023-07-09T00:36:41;10.68;;;8.55;;
68216;SDS011;55037;52.354;4.992;2023-07-09T00:39:15;11.02;;;6.63;;
68216;SDS011;55037;52.354;4.992;2023-07-09T00:41:48;13.52;;;6.82;;
68216;SDS011;55037;52.354;4.992;2023-07-09T00:49:15;12.85;;;8.07;;
68216;SDS011;55037;52.354;4.992;2023-07-09T00:51:56;13.48;;;7.85;;
68216;SDS011;55037;52.354;4.992;2023-07-09T00:54:32;17.38;;;8.85;;
68216;SDS011;55037;52.354;4.992;2023-07-09T00:57:05;12.93;;;8.83;;
68216;SDS011;55037;52.354;4.992;2023-07-09T00:59:38;14.95;;;8.57;;
68216;SDS011;55037;52.354;4.992;2023-07-09T01:02:07;13.00;;;8.55;;
68216;SDS011;55037;52.354;4.992;2023-07-09T01:04:35;13.13;;;6.20;;
68216;SDS011;55037;52.354;4.992;2023-07-09T01:07:03;12.68;;;7.75;;
68216;SDS011;55037;52.354;4.992;2023-07-09T01:09:31;11.20;;;8.23;;
68216;SDS011;55037;52.354;4.992;2023-07-09T01:12:03;13.65;;;6.35;;
68216;SDS011;55037;52.354;4.992;2023-07-09T01:14:36;10.70;;;6.10;;
68216;SDS011;55037;52.354;4.992;2023-07-09T01:17:05;12.45;;;6.75;;
68216;SDS011;55037;52.354;4.992;2023-07-09T01:19:37;12.40;;;7.03;;
68216;SDS011;55037;52.354;4.992;2023-07-09T01:22:11;18.23;;;8.93;;
68216;SDS011;55037;52.354;4.992;2023-07-09T01:24:48;9.55;;;6.43;;
68216;SDS011;55037;52.354;4.992;2023-07-09T01:27:16;16.88;;;9.40;;
68216;SDS011;55037;52.354;4.992;2023-07-09T01:29:45;11.90;;;6.85;;
68216;SDS011;55037;52.354;4.992;2023-07-09T01:32:16;12.98;;;9.07;;
68216;SDS011;55037;52.354;4.992;2023-07-09T01:34:46;12.53;;;8.10;;
68216;SDS011;55037;52.354;4.992;2023-07-09T01:37:19;14.88;;;9.57;;
68216;SDS011;55037;52.354;4.992;2023-07-09T01:39:54;13.77;;;9.30;;
68216;SDS011;55037;52.354;4.992;2023-07-09T01:42:22;10.57;;;6.38;;
68216;SDS011;55037;52.354;4.992;2023-07-09T01:44:52;11.65;;;6.40;;
68216;SDS011;55037;52.354;4.992;2023-07-09T01:47:20;10.67;;;6.53;;
68216;SDS011;55037;52.354;4.992;2023-07-09T01:49:51;12.55;;;7.75;;
68216;SDS011;55037;52.354;4.992;2023-07-09T01:52:25;14.32;;;9.05;;
68216;SDS011;55037;52.354;4.992;2023-07-09T01:54:54;14.38;;;9.15;;
68216;SDS011;55037;52.354;4.992;2023-07-09T01:57:22;13.60;;;8.73;;
68216;SDS011;55037;52.354;4.992;2023-07-09T01:59:53;12.83;;;7.43;;
68216;SDS011;55037;52.354;4.992;2023-07-09T02:02:22;11.15;;;7.05;;
68216;SDS011;55037;52.354;4.992;2023-07-09T02:04:51;14.80;;;8.95;;
68216;SDS011;55037;52.354;4.992;2023-07-09T02:07:20;13.95;;;9.55;;
68216;SDS011;55037;52.354;4.992;2023-07-09T02:09:49;18.00;;;9.25;;
68216;SDS011;55037;52.354;4.992;2023-07-09T02:12:17;11.50;;;7.53;;
68216;SDS011;55037;52.354;4.992;2023-07-09T02:14:45;17.25;;;9.95;;
68216;SDS011;55037;52.354;4.992;2023-07-09T02:17:13;15.93;;;8.65;;
68216;SDS011;55037;52.354;4.992;2023-07-09T02:19:41;11.00;;;7.25;;
68216;SDS011;55037;52.354;4.992;2023-07-09T02:22:09;12.40;;;7.93;;
68216;SDS011;55037;52.354;4.992;2023-07-09T02:24:37;10.30;;;7.13;;
68216;SDS011;55037;52.354;4.992;2023-07-09T02:27:06;16.27;;;7.30;;
68216;SDS011;55037;52.354;4.992;2023-07-09T02:29:34;16.20;;;10.02;;
68216;SDS011;55037;52.354;4.992;2023-07-09T02:32:01;15.55;;;9.27;;
68216;SDS011;55037;52.354;4.992;2023-07-09T02:34:30;13.10;;;9.45;;
68216;SDS011;55037;52.354;4.992;2023-07-09T02:36:58;14.37;;;7.30;;
68216;SDS011;55037;52.354;4.992;2023-07-09T02:39:26;12.13;;;6.70;;
68216;SDS011;55037;52.354;4.992;2023-07-09T02:41:54;16.58;;;10.32;;
68216;SDS011;55037;52.354;4.992;2023-07-09T02:44:21;16.35;;;10.35;;
68216;SDS011;55037;52.354;4.992;2023-07-09T02:46:49;14.25;;;8.13;;
68216;SDS011;55037;52.354;4.992;2023-07-09T02:49:16;10.50;;;7.17;;
68216;SDS011;55037;52.354;4.992;2023-07-09T02:51:45;13.65;;;7.90;;
68216;SDS011;55037;52.354;4.992;2023-07-09T02:54:12;14.82;;;9.25;;
68216;SDS011;55037;52.354;4.992;2023-07-09T02:56:39;11.35;;;7.22;;
68216;SDS011;55037;52.354;4.992;2023-07-09T02:59:07;12.65;;;8.10;;
68216;SDS011;55037;52.354;4.992;2023-07-09T03:01:34;14.03;;;8.80;;
68216;SDS011;55037;52.354;4.992;2023-07-09T03:04:02;13.85;;;8.52;;
68216;SDS011;55037;52.354;4.992;2023-07-09T03:06:31;18.40;;;11.50;;
68216;SDS011;55037;52.354;4.992;2023-07-09T03:08:59;16.48;;;10.48;;
68216;SDS011;55037;52.354;4.992;2023-07-09T03:11:28;15.65;;;10.52;;
68216;SDS011;55037;52.354;4.992;2023-07-09T03:14:00;17.07;;;9.87;;
68216;SDS011;55037;52.354;4.992;2023-07-09T03:16:29;14.98;;;8.18;;
68216;SDS011;55037;52.354;4.992;2023-07-09T03:18:58;16.27;;;10.77;;
68216;SDS011;55037;52.354;4.992;2023-07-09T03:21:27;15.05;;;10.23;;
68216;SDS011;55037;52.354;4.992;2023-07-09T03:23:57;14.48;;;8.18;;
68216;SDS011;55037;52.354;4.992;2023-07-09T03:26:25;17.80;;;10.60;;
68216;SDS011;55037;52.354;4.992;2023-07-09T03:28:53;13.73;;;8.07;;
68216;SDS011;55037;52.354;4.992;2023-07-09T03:31:21;16.42;;;9.10;;
68216;SDS011;55037;52.354;4.992;2023-07-09T03:33:49;16.33;;;11.00;;
68216;SDS011;55037;52.354;4.992;2023-07-09T03:36:18;12.98;;;8.23;;
68216;SDS011;55037;52.354;4.992;2023-07-09T03:38:47;15.97;;;11.37;;
68216;SDS011;55037;52.354;4.992;2023-07-09T03:41:15;14.40;;;7.80;;
68216;SDS011;55037;52.354;4.992;2023-07-09T03:43:43;12.80;;;8.13;;
68216;SDS011;55037;52.354;4.992;2023-07-09T03:46:10;15.00;;;9.30;;
68216;SDS011;55037;52.354;4.992;2023-07-09T03:48:38;19.23;;;11.68;;
68216;SDS011;55037;52.354;4.992;2023-07-09T03:51:05;17.90;;;11.17;;
68216;SDS011;55037;52.354;4.992;2023-07-09T03:53:33;15.57;;;8.70;;
68216;SDS011;55037;52.354;4.992;2023-07-09T03:56:00;19.80;;;12.82;;
68216;SDS011;55037;52.354;4.992;2023-07-09T03:58:28;17.02;;;8.48;;
68216;SDS011;55037;52.354;4.992;2023-07-09T04:00:55;10.23;;;7.50;;
68216;SDS011;55037;52.354;4.992;2023-07-09T04:03:23;16.13;;;8.30;;
68216;SDS011;55037;52.354;4.992;2023-07-09T04:05:51;12.85;;;8.38;;
68216;SDS011;55037;52.354;4.992;2023-07-09T04:08:18;19.58;;;12.48;;
68216;SDS011;55037;52.354;4.992;2023-07-09T04:10:46;13.18;;;8.90;;
68216;SDS011;55037;52.354;4.992;2023-07-09T04:13:14;17.80;;;9.77;;
68216;SDS011;55037;52.354;4.992;2023-07-09T04:15:41;17.20;;;11.63;;
68216;SDS011;55037;52.354;4.992;2023-07-09T04:18:08;17.85;;;11.07;;
68216;SDS011;55037;52.354;4.992;2023-07-09T04:20:35;15.07;;;8.70;;
68216;SDS011;55037;52.354;4.992;2023-07-09T04:23:03;17.83;;;11.48;;
68216;SDS011;55037;52.354;4.992;2023-07-09T04:25:31;14.80;;;9.10;;
68216;SDS011;55037;52.354;4.992;2023-07-09T04:27:58;18.37;;;11.73;;
68216;SDS011;55037;52.354;4.992;2023-07-09T04:30:26;16.50;;;9.30;;
68216;SDS011;55037;52.354;4.992;2023-07-09T04:32:55;18.92;;;10.90;;
68216;SDS011;55037;52.354;4.992;2023-07-09T04:35:22;16.17;;;10.07;;
68216;SDS011;55037;52.354;4.992;2023-07-09T04:37:50;14.90;;;10.88;;
68216;SDS011;55037;52.354;4.992;2023-07-09T04:40:18;17.33;;;10.63;;
68216;SDS011;55037;52.354;4.992;2023-07-09T04:42:45;22.67;;;12.32;;
68216;SDS011;55037;52.354;4.992;2023-07-09T04:45:13;18.05;;;11.55;;
68216;SDS011;55037;52.354;4.992;2023-07-09T04:47:40;13.30;;;8.90;;
68216;SDS011;55037;52.354;4.992;2023-07-09T04:50:08;19.88;;;12.55;;
68216;SDS011;55037;52.354;4.992;2023-07-09T04:52:36;16.43;;;8.73;;
68216;SDS011;55037;52.354;4.992;2023-07-09T04:55:03;11.65;;;7.00;;
68216;SDS011;55037;52.354;4.992;2023-07-09T04:57:31;19.23;;;13.40;;
68216;SDS011;55037;52.354;4.992;2023-07-09T04:59:58;17.25;;;11.60;;
68216;SDS011;55037;52.354;4.992;2023-07-09T05:02:25;19.08;;;12.23;;
68216;SDS011;55037;52.354;4.992;2023-07-09T05:04:53;17.80;;;9.07;;
68216;SDS011;55037;52.354;4.992;2023-07-09T05:07:21;15.95;;;11.57;;
68216;SDS011;55037;52.354;4.992;2023-07-09T05:09:48;17.27;;;12.38;;
68216;SDS011;55037;52.354;4.992;2023-07-09T05:12:15;21.45;;;12.43;;
68216;SDS011;55037;52.354;4.992;2023-07-09T05:14:43;21.25;;;12.40;;
68216;SDS011;55037;52.354;4.992;2023-07-09T05:17:10;19.50;;;13.03;;
68216;SDS011;55037;52.354;4.992;2023-07-09T05:19:38;13.60;;;9.70;;
68216;SDS011;55037;52.354;4.992;2023-07-09T05:22:05;16.33;;;12.15;;
68216;SDS011;55037;52.354;4.992;2023-07-09T05:24:33;22.48;;;9.77;;
68216;SDS011;55037;52.354;4.992;2023-07-09T05:27:01;17.38;;;12.70;;
68216;SDS011;55037;52.354;4.992;2023-07-09T05:29:28;17.80;;;9.37;;
68216;SDS011;55037;52.354;4.992;2023-07-09T05:31:55;20.30;;;12.68;;
68216;SDS011;55037;52.354;4.992;2023-07-09T05:34:23;15.43;;;12.15;;
68216;SDS011;55037;52.354;4.992;2023-07-09T05:36:50;19.63;;;12.93;;
68216;SDS011;55037;52.354;4.992;2023-07-09T05:39:17;19.08;;;9.32;;
68216;SDS011;55037;52.354;4.992;2023-07-09T05:41:44;15.57;;;8.53;;
68216;SDS011;55037;52.354;4.992;2023-07-09T05:44:12;16.00;;;11.45;;
68216;SDS011;55037;52.354;4.992;2023-07-09T05:46:39;13.95;;;8.43;;
68216;SDS011;55037;52.354;4.992;2023-07-09T05:49:07;15.98;;;10.88;;
68216;SDS011;55037;52.354;4.992;2023-07-09T05:51:34;14.65;;;9.50;;
68216;SDS011;55037;52.354;4.992;2023-07-09T05:54:01;15.37;;;11.57;;
68216;SDS011;55037;52.354;4.992;2023-07-09T05:56:29;17.40;;;11.65;;
68216;SDS011;55037;52.354;4.992;2023-07-09T05:58:56;23.23;;;11.55;;
68216;SDS011;55037;52.354;4.992;2023-07-09T06:01:24;16.58;;;11.70;;
68216;SDS011;55037;52.354;4.992;2023-07-09T06:03:53;15.55;;;12.00;;
68216;SDS011;55037;52.354;4.992;2023-07-09T06:06:21;15.57;;;10.90;;
68216;SDS011;55037;52.354;4.992;2023-07-09T06:08:48;15.55;;;10.93;;
68216;SDS011;55037;52.354;4.992;2023-07-09T06:11:17;17.45;;;12.07;;
68216;SDS011;55037;52.354;4.992;2023-07-09T06:13:47;17.73;;;11.88;;
68216;SDS011;55037;52.354;4.992;2023-07-09T06:16:17;18.50;;;12.57;;
68216;SDS011;55037;52.354;4.992;2023-07-09T06:18:45;19.10;;;11.77;;
68216;SDS011;55037;52.354;4.992;2023-07-09T06:21:12;17.02;;;12.15;;
68216;SDS011;55037;52.354;4.992;2023-07-09T06:23:39;16.73;;;12.63;;
68216;SDS011;55037;52.354;4.992;2023-07-09T06:26:07;19.58;;;11.55;;
68216;SDS011;55037;52.354;4.992;2023-07-09T06:28:34;15.65;;;11.20;;
68216;SDS011;55037;52.354;4.992;2023-07-09T06:31:01;17.47;;;11.17;;
68216;SDS011;55037;52.354;4.992;2023-07-09T06:33:29;16.88;;;11.57;;
68216;SDS011;55037;52.354;4.992;2023-07-09T06:35:57;17.20;;;11.80;;
68216;SDS011;55037;52.354;4.992;2023-07-09T06:38:27;18.42;;;11.85;;
68216;SDS011;55037;52.354;4.992;2023-07-09T06:40:56;17.50;;;12.00;;
68216;SDS011;55037;52.354;4.992;2023-07-09T06:43:24;15.27;;;11.47;;
68216;SDS011;55037;52.354;4.992;2023-07-09T06:45:53;19.02;;;12.27;;
68216;SDS011;55037;52.354;4.992;2023-07-09T06:48:26;18.45;;;12.13;;
68216;SDS011;55037;52.354;4.992;2023-07-09T06:50:55;18.45;;;12.68;;
68216;SDS011;55037;52.354;4.992;2023-07-09T06:53:23;19.73;;;12.77;;
68216;SDS011;55037;52.354;4.992;2023-07-09T06:55:51;16.60;;;12.20;;
68216;SDS011;55037;52.354;4.992;2023-07-09T06:58:22;18.08;;;13.75;;
68216;SDS011;55037;52.354;4.992;2023-07-09T07:00:52;20.25;;;14.85;;
68216;SDS011;55037;52.354;4.992;2023-07-09T07:03:20;18.77;;;14.30;;
68216;SDS011;55037;52.354;4.992;2023-07-09T07:05:49;21.17;;;15.13;;
68216;SDS011;55037;52.354;4.992;2023-07-09T07:08:17;24.50;;;16.10;;
68216;SDS011;55037;52.354;4.992;2023-07-09T07:10:49;27.52;;;19.52;;
68216;SDS011;55037;52.354;4.992;2023-07-09T07:13:17;27.52;;;21.35;;
68216;SDS011;55037;52.354;4.992;2023-07-09T07:15:47;26.45;;;20.45;;
68216;SDS011;55037;52.354;4.992;2023-07-09T07:18:16;34.55;;;24.27;;
68216;SDS011;55037;52.354;4.992;2023-07-09T07:20:43;27.13;;;20.27;;
68216;SDS011;55037;52.354;4.992;2023-07-09T07:23:11;25.38;;;18.38;;
68216;SDS011;55037;52.354;4.992;2023-07-09T07:25:38;26.92;;;20.17;;
68216;SDS011;55037;52.354;4.992;2023-07-09T07:28:05;25.65;;;18.92;;
68216;SDS011;55037;52.354;4.992;2023-07-09T07:30:33;25.02;;;16.42;;
68216;SDS011;55037;52.354;4.992;2023-07-09T07:33:00;25.03;;;19.40;;
68216;SDS011;55037;52.354;4.992;2023-07-09T07:35:28;24.85;;;19.92;;
68216;SDS011;55037;52.354;4.992;2023-07-09T07:37:55;24.27;;;19.17;;
68216;SDS011;55037;52.354;4.992;2023-07-09T07:40:22;24.55;;;17.48;;
68216;SDS011;55037;52.354;4.992;2023-07-09T07:42:50;20.15;;;15.98;;
68216;SDS011;55037;52.354;4.992;2023-07-09T07:45:18;21.73;;;14.93;;
68216;SDS011;55037;52.354;4.992;2023-07-09T07:47:47;20.23;;;11.63;;
68216;SDS011;55037;52.354;4.992;2023-07-09T07:50:17;16.50;;;10.70;;
68216;SDS011;55037;52.354;4.992;2023-07-09T07:52:45;14.50;;;9.88;;
68216;SDS011;55037;52.354;4.992;2023-07-09T07:55:12;12.18;;;8.43;;
68216;SDS011;55037;52.354;4.992;2023-07-09T07:57:44;11.97;;;8.03;;
68216;SDS011;55037;52.354;4.992;2023-07-09T08:00:12;14.27;;;8.82;;
68216;SDS011;55037;52.354;4.992;2023-07-09T08:02:39;12.45;;;8.23;;
68216;SDS011;55037;52.354;4.992;2023-07-09T08:05:07;11.70;;;7.47;;
68216;SDS011;55037;52.354;4.992;2023-07-09T08:07:34;11.82;;;7.63;;
68216;SDS011;55037;52.354;4.992;2023-07-09T08:10:02;13.37;;;8.50;;
68216;SDS011;55037;52.354;4.992;2023-07-09T08:12:29;13.10;;;8.57;;
68216;SDS011;55037;52.354;4.992;2023-07-09T08:14:57;13.15;;;9.32;;
68216;SDS011;55037;52.354;4.992;2023-07-09T08:17:24;13.52;;;9.45;;
68216;SDS011;55037;52.354;4.992;2023-07-09T08:19:52;16.15;;;10.85;;
68216;SDS011;55037;52.354;4.992;2023-07-09T08:22:21;16.87;;;10.57;;
68216;SDS011;55037;52.354;4.992;2023-07-09T08:24:49;17.50;;;11.27;;
68216;SDS011;55037;52.354;4.992;2023-07-09T08:27:18;15.93;;;11.18;;
68216;SDS011;55037;52.354;4.992;2023-07-09T08:29:46;14.82;;;11.10;;
68216;SDS011;55037;52.354;4.992;2023-07-09T08:32:13;18.65;;;12.10;;
68216;SDS011;55037;52.354;4.992;2023-07-09T08:34:41;16.83;;;12.03;;
68216;SDS011;55037;52.354;4.992;2023-07-09T08:37:29;16.40;;;12.98;;
68216;SDS011;55037;52.354;4.992;2023-07-09T08:39:56;16.17;;;12.23;;
68216;SDS011;55037;52.354;4.992;2023-07-09T08:42:26;16.48;;;10.90;;
68216;SDS011;55037;52.354;4.992;2023-07-09T08:45:02;14.00;;;10.93;;
68216;SDS011;55037;52.354;4.992;2023-07-09T08:48:03;13.50;;;9.43;;
68216;SDS011;55037;52.354;4.992;2023-07-09T08:50:35;11.80;;;8.75;;
68216;SDS011;55037;52.354;4.992;2023-07-09T08:53:05;12.85;;;8.77;;
68216;SDS011;55037;52.354;4.992;2023-07-09T08:55:41;12.27;;;7.80;;
68216;SDS011;55037;52.354;4.992;2023-07-09T08:58:20;14.50;;;7.50;;
68216;SDS011;55037;52.354;4.992;2023-07-09T09:01:02;11.73;;;7.70;;
68216;SDS011;55037;52.354;4.992;2023-07-09T09:03:49;11.85;;;7.68;;
68216;SDS011;55037;52.354;4.992;2023-07-09T09:06:25;13.40;;;9.70;;
68216;SDS011;55037;52.354;4.992;2023-07-09T09:11:53;17.20;;;10.18;;
68216;SDS011;55037;52.354;4.992;2023-07-09T09:14:31;13.27;;;9.43;;
68216;SDS011;55037;52.354;4.992;2023-07-09T09:17:02;12.77;;;9.80;;
68216;SDS011;55037;52.354;4.992;2023-07-09T09:19:42;16.33;;;9.80;;
68216;SDS011;55037;52.354;4.992;2023-07-09T09:22:18;12.82;;;8.50;;
68216;SDS011;55037;52.354;4.992;2023-07-09T09:27:29;12.40;;;8.80;;
68216;SDS011;55037;52.354;4.992;2023-07-09T09:29:56;13.57;;;9.27;;
68216;SDS011;55037;52.354;4.992;2023-07-09T09:32:27;12.07;;;9.43;;
68216;SDS011;55037;52.354;4.992;2023-07-09T09:34:57;11.63;;;9.25;;
68216;SDS011;55037;52.354;4.992;2023-07-09T09:37:26;11.80;;;9.40;;
68216;SDS011;55037;52.354;4.992;2023-07-09T09:39:55;15.60;;;8.90;;
68216;SDS011;55037;52.354;4.992;2023-07-09T09:42:39;11.15;;;9.43;;
68216;SDS011;55037;52.354;4.992;2023-07-09T09:45:13;13.00;;;10.10;;
68216;SDS011;55037;52.354;4.992;2023-07-09T09:47:44;11.70;;;9.40;;
68216;SDS011;55037;52.354;4.992;2023-07-09T09:50:19;14.05;;;9.25;;
68216;SDS011;55037;52.354;4.992;2023-07-09T09:52:49;13.73;;;9.60;;
68216;SDS011;55037;52.354;4.992;2023-07-09T09:55:20;12.48;;;9.40;;
68216;SDS011;55037;52.354;4.992;2023-07-09T09:57:52;12.05;;;10.23;;
68216;SDS011;55037;52.354;4.992;2023-07-09T10:00:27;16.00;;;11.85;;
68216;SDS011;55037;52.354;4.992;2023-07-09T10:03:01;14.80;;;11.15;;
68216;SDS011;55037;52.354;4.992;2023-07-09T10:05:42;15.57;;;10.53;;
68216;SDS011;55037;52.354;4.992;2023-07-09T10:11:45;19.10;;;14.23;;
68216;SDS011;55037;52.354;4.992;2023-07-09T10:17:09;20.55;;;17.27;;
68216;SDS011;55037;52.354;4.992;2023-07-09T10:19:48;16.67;;;14.07;;
68216;SDS011;55037;52.354;4.992;2023-07-09T10:22:47;19.60;;;16.45;;
68216;SDS011;55037;52.354;4.992;2023-07-09T10:25:20;20.73;;;18.10;;
68216;SDS011;55037;52.354;4.992;2023-07-09T10:28:33;20.70;;;17.55;;
68216;SDS011;55037;52.354;4.992;2023-07-09T10:34:17;20.00;;;16.73;;
68216;SDS011;55037;52.354;4.992;2023-07-09T10:39:41;21.30;;;15.50;;
68216;SDS011;55037;52.354;4.992;2023-07-09T10:42:57;16.98;;;13.10;;
68216;SDS011;55037;52.354;4.992;2023-07-09T10:45:15;16.90;;;13.02;;
68216;SDS011;55037;52.354;4.992;2023-07-09T10:47:48;14.30;;;11.23;;
68216;SDS011;55037;52.354;4.992;2023-07-09T10:50:40;12.90;;;11.50;;
68216;SDS011;55037;52.354;4.992;2023-07-09T10:53:23;14.20;;;11.60;;
68216;SDS011;55037;52.354;4.992;2023-07-09T10:56:21;11.93;;;10.02;;
68216;SDS011;55037;52.354;4.992;2023-07-09T11:01:50;13.90;;;10.57;;
68216;SDS011;55037;52.354;4.992;2023-07-09T11:04:31;12.40;;;9.82;;
68216;SDS011;55037;52.354;4.992;2023-07-09T11:07:04;14.82;;;10.90;;
68216;SDS011;55037;52.354;4.992;2023-07-09T11:09:43;12.40;;;9.73;;
68216;SDS011;55037;52.354;4.992;2023-07-09T11:12:14;12.77;;;10.15;;
68216;SDS011;55037;52.354;4.992;2023-07-09T11:14:58;13.47;;;8.67;;
68216;SDS011;55037;52.354;4.992;2023-07-09T11:17:32;10.18;;;7.43;;
68216;SDS011;55037;52.354;4.992;2023-07-09T11:20:06;12.43;;;7.55;;
68216;SDS011;55037;52.354;4.992;2023-07-09T11:22:50;11.27;;;8.23;;
68216;SDS011;55037;52.354;4.992;2023-07-09T11:28:38;9.00;;;6.30;;
68216;SDS011;55037;52.354;4.992;2023-07-09T11:31:07;9.10;;;6.22;;
68216;SDS011;55037;52.354;4.992;2023-07-09T11:33:49;9.57;;;7.35;;
68216;SDS011;55037;52.354;4.992;2023-07-09T11:36:51;8.65;;;7.05;;
68216;SDS011;55037;52.354;4.992;2023-07-09T11:39:22;9.13;;;6.75;;
68216;SDS011;55037;52.354;4.992;2023-07-09T11:41:53;9.90;;;6.77;;
68216;SDS011;55037;52.354;4.992;2023-07-09T11:44:22;10.43;;;7.25;;
68216;SDS011;55037;52.354;4.992;2023-07-09T11:49:31;8.52;;;7.63;;
68216;SDS011;55037;52.354;4.992;2023-07-09T11:52:04;9.48;;;6.40;;
68216;SDS011;55037;52.354;4.992;2023-07-09T11:54:35;12.40;;;6.23;;
68216;SDS011;55037;52.354;4.992;2023-07-09T11:57:05;9.25;;;6.00;;
68216;SDS011;55037;52.354;4.992;2023-07-09T11:59:39;7.60;;;5.53;;
68216;SDS011;55037;52.354;4.992;2023-07-09T12:02:13;8.10;;;6.05;;
68216;SDS011;55037;52.354;4.992;2023-07-09T12:04:43;11.23;;;6.28;;
68216;SDS011;55037;52.354;4.992;2023-07-09T12:07:14;11.93;;;6.50;;
68216;SDS011;55037;52.354;4.992;2023-07-09T12:09:46;8.88;;;5.68;;
68216;SDS011;55037;52.354;4.992;2023-07-09T12:14:55;9.23;;;6.47;;
68216;SDS011;55037;52.354;4.992;2023-07-09T12:17:23;9.15;;;6.80;;
68216;SDS011;55037;52.354;4.992;2023-07-09T12:19:55;8.60;;;7.27;;
68216;SDS011;55037;52.354;4.992;2023-07-09T12:22:23;8.88;;;6.88;;
68216;SDS011;55037;52.354;4.992;2023-07-09T12:24:50;7.40;;;6.57;;
68216;SDS011;55037;52.354;4.992;2023-07-09T12:27:24;8.90;;;6.65;;
68216;SDS011;55037;52.354;4.992;2023-07-09T12:29:54;11.45;;;7.47;;
68216;SDS011;55037;52.354;4.992;2023-07-09T12:32:23;8.27;;;6.80;;
68216;SDS011;55037;52.354;4.992;2023-07-09T12:34:55;8.18;;;7.30;;
68216;SDS011;55037;52.354;4.992;2023-07-09T12:37:24;10.18;;;8.02;;
68216;SDS011;55037;52.354;4.992;2023-07-09T12:39:54;8.20;;;6.60;;
68216;SDS011;55037;52.354;4.992;2023-07-09T12:42:28;8.18;;;7.32;;
68216;SDS011;55037;52.354;4.992;2023-07-09T12:44:58;10.03;;;6.47;;
68216;SDS011;55037;52.354;4.992;2023-07-09T12:47:26;7.72;;;6.30;;
68216;SDS011;55037;52.354;4.992;2023-07-09T12:50:00;7.18;;;6.45;;
68216;SDS011;55037;52.354;4.992;2023-07-09T12:52:30;7.88;;;6.57;;
68216;SDS011;55037;52.354;4.992;2023-07-09T12:54:58;12.48;;;6.68;;
68216;SDS011;55037;52.354;4.992;2023-07-09T12:57:27;7.60;;;6.07;;
68216;SDS011;55037;52.354;4.992;2023-07-09T12:59:55;11.55;;;5.90;;
68216;SDS011;55037;52.354;4.992;2023-07-09T13:02:24;11.30;;;5.65;;
68216;SDS011;55037;52.354;4.992;2023-07-09T13:05:03;9.73;;;5.72;;
68216;SDS011;55037;52.354;4.992;2023-07-09T13:07:33;7.57;;;4.78;;
68216;SDS011;55037;52.354;4.992;2023-07-09T13:10:14;9.83;;;5.00;;
68216;SDS011;55037;52.354;4.992;2023-07-09T13:12:53;10.32;;;4.90;;
68216;SDS011;55037;52.354;4.992;2023-07-09T13:15:30;10.35;;;4.63;;
68216;SDS011;55037;52.354;4.992;2023-07-09T13:18:06;12.38;;;5.22;;
68216;SDS011;55037;52.354;4.992;2023-07-09T13:20:40;9.88;;;4.85;;
68216;SDS011;55037;52.354;4.992;2023-07-09T13:23:13;10.00;;;5.50;;
68216;SDS011;55037;52.354;4.992;2023-07-09T13:25:46;10.85;;;5.60;;
68216;SDS011;55037;52.354;4.992;2023-07-09T13:28:19;12.38;;;5.20;;
68216;SDS011;55037;52.354;4.992;2023-07-09T13:30:47;10.65;;;5.68;;
68216;SDS011;55037;52.354;4.992;2023-07-09T13:33:17;8.50;;;5.00;;
68216;SDS011;55037;52.354;4.992;2023-07-09T13:35:45;10.27;;;5.07;;
68216;SDS011;55037;52.354;4.992;2023-07-09T13:38:14;12.05;;;5.78;;
68216;SDS011;55037;52.354;4.992;2023-07-09T13:40:44;14.02;;;6.25;;
68216;SDS011;55037;52.354;4.992;2023-07-09T13:43:18;16.25;;;6.10;;
68216;SDS011;55037;52.354;4.992;2023-07-09T13:45:54;14.20;;;6.53;;
68216;SDS011;55037;52.354;4.992;2023-07-09T13:48:24;16.70;;;6.13;;
68216;SDS011;55037;52.354;4.992;2023-07-09T13:50:53;15.90;;;5.80;;
68216;SDS011;55037;52.354;4.992;2023-07-09T13:53:22;14.57;;;5.97;;
68216;SDS011;55037;52.354;4.992;2023-07-09T13:55:51;14.88;;;5.50;;
68216;SDS011;55037;52.354;4.992;2023-07-09T13:58:21;10.68;;;4.72;;
68216;SDS011;55037;52.354;4.992;2023-07-09T14:00:50;11.97;;;4.43;;
68216;SDS011;55037;52.354;4.992;2023-07-09T14:03:26;12.68;;;5.13;;
68216;SDS011;55037;52.354;4.992;2023-07-09T14:05:57;14.02;;;7.28;;
68216;SDS011;55037;52.354;4.992;2023-07-09T14:08:24;15.48;;;6.90;;
68216;SDS011;55037;52.354;4.992;2023-07-09T14:10:51;14.88;;;7.05;;
68216;SDS011;55037;52.354;4.992;2023-07-09T14:13:20;13.97;;;7.90;;
68216;SDS011;55037;52.354;4.992;2023-07-09T14:15:50;15.82;;;7.90;;
68216;SDS011;55037;52.354;4.992;2023-07-09T14:18:19;14.70;;;8.35;;
68216;SDS011;55037;52.354;4.992;2023-07-09T14:20:49;13.88;;;7.93;;
68216;SDS011;55037;52.354;4.992;2023-07-09T14:23:17;15.73;;;7.70;;
68216;SDS011;55037;52.354;4.992;2023-07-09T14:25:48;13.50;;;7.70;;
68216;SDS011;55037;52.354;4.992;2023-07-09T14:28:16;18.25;;;7.88;;
68216;SDS011;55037;52.354;4.992;2023-07-09T14:30:48;10.90;;;7.35;;
68216;SDS011;55037;52.354;4.992;2023-07-09T14:33:18;13.85;;;5.88;;
68216;SDS011;55037;52.354;4.992;2023-07-09T14:35:47;14.75;;;6.57;;
68216;SDS011;55037;52.354;4.992;2023-07-09T14:38:17;11.43;;;5.00;;
68216;SDS011;55037;52.354;4.992;2023-07-09T14:40:47;8.55;;;4.20;;
68216;SDS011;55037;52.354;4.992;2023-07-09T14:43:15;9.82;;;4.00;;
68216;SDS011;55037;52.354;4.992;2023-07-09T14:45:43;8.30;;;4.20;;
68216;SDS011;55037;52.354;4.992;2023-07-09T14:48:15;10.23;;;5.57;;
68216;SDS011;55037;52.354;4.992;2023-07-09T14:50:44;10.60;;;6.03;;
68216;SDS011;55037;52.354;4.992;2023-07-09T14:53:12;8.02;;;4.35;;
68216;SDS011;55037;52.354;4.992;2023-07-09T14:55:42;10.32;;;6.38;;
68216;SDS011;55037;52.354;4.992;2023-07-09T14:58:18;11.15;;;4.65;;
68216;SDS011;55037;52.354;4.992;2023-07-09T15:00:47;11.38;;;6.35;;
68216;SDS011;55037;52.354;4.992;2023-07-09T15:03:20;7.13;;;4.37;;
68216;SDS011;55037;52.354;4.992;2023-07-09T15:05:49;7.25;;;3.80;;
68216;SDS011;55037;52.354;4.992;2023-07-09T15:08:21;7.32;;;3.40;;
68216;SDS011;55037;52.354;4.992;2023-07-09T15:10:51;13.48;;;4.57;;
68216;SDS011;55037;52.354;4.992;2023-07-09T15:13:21;10.48;;;4.60;;
68216;SDS011;55037;52.354;4.992;2023-07-09T15:15:59;9.60;;;4.13;;
68216;SDS011;55037;52.354;4.992;2023-07-09T15:18:27;15.90;;;4.93;;
68216;SDS011;55037;52.354;4.992;2023-07-09T15:20:56;14.93;;;5.25;;
68216;SDS011;55037;52.354;4.992;2023-07-09T15:23:26;13.52;;;4.50;;
68216;SDS011;55037;52.354;4.992;2023-07-09T15:25:55;10.15;;;4.60;;